createdAt,value
2022-11-10T06:49:51.624Z,7.80
2022-11-10T06:52:57.969Z,7.90
2022-11-10T06:55:59.902Z,8.20
2022-11-10T06:59:02.410Z,8.60
2022-11-10T07:02:04.445Z,9.00
2022-11-10T07:05:07.577Z,9.20
2022-11-10T07:08:16.467Z,9.30
2022-11-10T07:11:18.595Z,9.20
2022-11-10T07:14:21.539Z,9.20
2022-11-10T07:17:24.634Z,9.20
2022-11-10T07:20:28.397Z,9.30
2022-11-10T07:23:31.461Z,9.30
2022-11-10T07:26:33.615Z,9.30
2022-11-10T07:29:36.285Z,9.50
2022-11-10T07:32:38.179Z,9.60
2022-11-10T07:35:40.624Z,9.60
2022-11-10T07:38:42.607Z,9.40
2022-11-10T07:41:47.632Z,9.30
2022-11-10T07:44:52.053Z,9.20
2022-11-10T07:47:59.712Z,9.60
2022-11-10T07:51:01.510Z,10.00
2022-11-10T07:54:04.110Z,10.10
2022-11-10T07:57:06.369Z,10.10
2022-11-10T08:00:08.822Z,10.30
2022-11-10T08:03:14.596Z,10.60
2022-11-10T08:06:16.531Z,10.90
2022-11-10T08:09:18.425Z,11.80
2022-11-10T08:12:20.451Z,12.60
2022-11-10T08:15:23.239Z,12.50
2022-11-10T08:18:26.179Z,12.30
2022-11-10T08:21:31.736Z,12.20
2022-11-10T08:24:33.559Z,12.50
2022-11-10T08:27:35.597Z,13.10
2022-11-10T08:30:39.259Z,13.20
2022-11-10T08:33:41.100Z,13.80
2022-11-10T08:36:43.392Z,14.50
2022-11-10T08:39:46.579Z,15.60
2022-11-10T08:42:49.479Z,16.20
2022-11-10T08:45:57.289Z,17.70
2022-11-10T08:49:00.197Z,19.20
2022-11-10T08:52:11.959Z,18.90
2022-11-10T08:55:14.122Z,19.30
2022-11-10T08:58:26.887Z,19.90
2022-11-10T09:01:29.129Z,20.20
2022-11-10T09:04:31.873Z,20.30
2022-11-10T09:07:44.354Z,20.30
2022-11-10T09:10:50.388Z,20.40
2022-11-10T09:13:52.322Z,20.30
2022-11-10T09:16:56.849Z,20.80
2022-11-10T09:19:58.707Z,20.00
2022-11-10T09:23:10.441Z,19.80
2022-11-10T09:26:13.032Z,19.90
2022-11-10T09:29:15.142Z,18.70
2022-11-10T09:32:17.233Z,17.60
2022-11-10T09:35:19.244Z,17.20
2022-11-10T09:38:22.239Z,18.50
2022-11-10T09:41:24.317Z,19.20
2022-11-10T09:44:43.106Z,19.60
2022-11-10T09:47:57.700Z,19.00
2022-11-10T09:51:06.518Z,18.20
2022-11-10T09:54:40.431Z,18.00
2022-11-10T09:57:48.876Z,18.70
2022-11-10T10:01:08.010Z,19.50
2022-11-10T10:04:44.710Z,19.50
2022-11-10T10:08:09.528Z,19.80
2022-11-10T10:11:30.151Z,19.60
2022-11-10T10:14:52.605Z,19.80
2022-11-10T10:18:22.648Z,19.50
2022-11-10T10:21:45.911Z,19.50
2022-11-10T10:24:53.311Z,19.80
2022-11-10T10:28:06.530Z,18.90
2022-11-10T10:31:20.281Z,18.90
2022-11-10T10:34:29.567Z,19.60
2022-11-10T10:37:46.857Z,19.70
2022-11-10T10:40:51.379Z,20.10
2022-11-10T10:43:56.314Z,19.40
2022-11-10T10:46:59.611Z,19.10
2022-11-10T10:50:33.409Z,18.20
2022-11-10T10:53:47.391Z,18.50
2022-11-10T10:56:49.966Z,19.20
2022-11-10T10:59:52.800Z,19.10
2022-11-10T11:03:04.776Z,19.20
2022-11-10T11:06:16.798Z,19.50
2022-11-10T11:09:29.478Z,19.80
2022-11-10T11:12:33.076Z,18.00
2022-11-10T11:15:35.048Z,18.80
2022-11-10T11:18:40.180Z,18.50
2022-11-10T11:21:59.936Z,18.90
2022-11-10T11:25:41.347Z,17.50
2022-11-10T11:29:19.572Z,18.50
2022-11-10T11:32:49.379Z,17.60
2022-11-10T11:36:04.261Z,16.50
2022-11-10T11:39:33.451Z,16.60
2022-11-10T11:43:15.636Z,16.20
2022-11-10T11:46:38.519Z,15.80
2022-11-10T11:50:12.426Z,15.60
2022-11-10T11:53:42.031Z,15.40
2022-11-10T11:56:47.982Z,15.10
2022-11-10T12:00:08.607Z,15.40
2022-11-10T12:03:29.922Z,15.30
2022-11-10T12:06:57.878Z,15.10
2022-11-10T12:10:21.784Z,15.00
2022-11-10T12:13:37.026Z,15.20
2022-11-10T12:16:40.643Z,15.30
2022-11-10T12:19:57.178Z,15.20
2022-11-10T12:23:25.445Z,15.00
2022-11-10T12:26:54.455Z,14.80
2022-11-10T12:30:03.163Z,15.00
2022-11-10T12:33:20.493Z,15.10
2022-11-10T12:36:24.063Z,15.20
2022-11-10T12:39:40.397Z,15.00
2022-11-10T12:42:46.633Z,15.00
2022-11-10T12:45:55.198Z,15.10
2022-11-10T12:49:19.856Z,14.90
2022-11-10T12:52:35.231Z,14.80
2022-11-10T12:55:45.782Z,14.70
2022-11-10T12:58:47.900Z,14.90
2022-11-10T13:01:52.905Z,14.90
2022-11-10T13:05:14.696Z,14.80
2022-11-10T13:08:25.803Z,15.00
2022-11-10T13:11:38.033Z,15.10
2022-11-10T13:14:40.209Z,15.10
2022-11-10T13:17:41.980Z,15.30
2022-11-10T13:20:47.948Z,15.10
2022-11-10T13:23:49.892Z,15.00
2022-11-10T13:26:55.552Z,15.00
2022-11-10T13:29:58.065Z,14.70
2022-11-10T13:33:23.008Z,14.90
2022-11-10T13:36:47.099Z,15.00
2022-11-10T13:39:49.063Z,15.00
2022-11-10T13:42:58.192Z,15.00
2022-11-10T13:46:01.510Z,14.90
2022-11-10T13:49:37.579Z,15.00
2022-11-10T13:52:39.386Z,14.80
2022-11-10T13:56:20.951Z,15.00
2022-11-10T13:59:25.956Z,15.00
2022-11-10T14:02:38.890Z,15.00
2022-11-10T14:05:42.074Z,14.90
2022-11-10T14:08:54.100Z,14.90
2022-11-10T14:12:02.470Z,14.80
2022-11-10T14:15:12.698Z,14.80
2022-11-10T14:18:20.717Z,14.70
2022-11-10T14:21:29.221Z,14.40
2022-11-10T14:24:39.208Z,14.40
2022-11-10T14:27:40.985Z,14.40
2022-11-10T14:30:51.852Z,14.10
2022-11-10T14:33:56.368Z,14.10
2022-11-10T14:37:01.334Z,14.00
2022-11-10T14:40:04.223Z,13.90
2022-11-10T14:43:06.013Z,13.80
2022-11-10T14:46:14.795Z,13.90
2022-11-10T14:49:23.008Z,13.90
2022-11-10T14:52:24.778Z,13.80
2022-11-10T14:55:31.388Z,13.80
2022-11-10T14:58:42.536Z,13.80
2022-11-10T15:01:51.285Z,13.70
2022-11-10T15:04:53.760Z,13.40
2022-11-10T15:07:57.225Z,13.30
2022-11-10T15:10:59.293Z,13.20
2022-11-10T15:14:01.098Z,13.30
2022-11-10T15:17:07.354Z,13.20
2022-11-10T15:20:28.374Z,13.20
2022-11-10T15:23:35.720Z,12.90
2022-11-10T15:26:40.380Z,12.90
2022-11-10T15:29:42.214Z,12.70
2022-11-10T15:32:49.117Z,12.70
2022-11-10T15:35:51.059Z,12.60
2022-11-10T15:39:15.533Z,12.40
2022-11-10T15:42:25.009Z,12.30
2022-11-10T15:45:26.699Z,12.30
2022-11-10T15:48:38.180Z,12.20
2022-11-10T15:51:39.894Z,12.10
2022-11-10T15:54:42.024Z,12.00
2022-11-10T15:57:43.714Z,11.90
2022-11-10T16:00:45.545Z,11.80
2022-11-10T16:03:47.576Z,11.70
2022-11-10T16:06:49.321Z,11.60
2022-11-10T16:09:51.188Z,11.40
2022-11-10T16:12:53.137Z,11.30
2022-11-10T16:15:55.951Z,11.30
2022-11-10T16:18:57.780Z,11.30
2022-11-10T16:21:59.476Z,11.20
2022-11-10T16:25:01.129Z,11.10
2022-11-10T16:28:04.463Z,11.00
2022-11-10T16:31:09.243Z,10.80
2022-11-10T16:34:13.960Z,10.80
2022-11-10T16:37:15.749Z,10.80
2022-11-10T16:40:20.342Z,10.80
2022-11-10T16:43:23.005Z,10.70
2022-11-10T16:46:28.584Z,10.60
2022-11-10T16:49:34.596Z,10.50
2022-11-10T16:52:36.403Z,10.50
2022-11-10T16:55:38.080Z,10.50
2022-11-10T16:58:39.765Z,10.50
